Time;durP1;ratioP1;P1;durP2;ratioP2;P2;SDS_P1;SDS_P2;PMS_P1;PMS_P2;Temp;Humidity;BMP_temperature;BMP_pressure;BME280_temperature;BME280_humidity;BME280_pressure;Samples;Min_cycle;Max_cycle;Signal;HPM_P1;HPM_P2
2021/08/15 00:02:52;;;;;;;15.75;12.60;;;20.50;99.90;;;;;;6203174;28;20045;-78
2021/08/15 00:05:52;;;;;;;20.27;13.57;;;20.50;99.90;;;;;;6202886;28;20068;-78
2021/08/15 00:08:53;;;;;;;18.92;13.75;;;20.50;99.90;;;;;;6202961;28;20036;-78
2021/08/15 00:11:54;;;;;;;16.10;12.63;;;20.60;99.90;;;;;;6221007;28;20444;-81
2021/08/15 00:14:54;;;;;;;15.35;12.48;;;20.50;99.90;;;;;;6220955;28;20141;-78
2021/08/15 00:17:55;;;;;;;18.13;12.68;;;20.50;99.90;;;;;;6202187;28;20065;-79
2021/08/15 00:20:55;;;;;;;16.70;13.70;;;20.50;99.90;;;;;;6227466;28;20029;-78
2021/08/15 00:23:56;;;;;;;15.82;12.40;;;20.60;99.90;;;;;;6210324;28;20029;-78
2021/08/15 00:26:56;;;;;;;15.60;12.35;;;20.60;99.90;;;;;;6237878;28;20038;-78
2021/08/15 00:29:57;;;;;;;15.40;12.30;;;20.60;99.90;;;;;;6237825;28;20025;-78
2021/08/15 00:32:57;;;;;;;15.98;12.75;;;20.60;99.90;;;;;;6244027;28;20145;-78
2021/08/15 00:35:58;;;;;;;18.30;13.13;;;;;;;;;;6244994;28;20041;-78
2021/08/15 00:38:59;;;;;;;17.48;12.63;;;20.60;99.90;;;;;;6223177;28;20427;-78
2021/08/15 00:42:00;;;;;;;17.15;13.30;;;20.70;99.90;;;;;;6185378;28;20109;-78
2021/08/15 00:45:00;;;;;;;16.90;12.88;;;20.60;99.90;;;;;;6185561;28;20025;-78
2021/08/15 00:48:11;;;;;;;15.25;12.98;;;20.50;99.90;;;;;;6202004;28;20037;-81
2021/08/15 00:51:11;;;;;;;14.57;12.85;;;20.60;99.90;;;;;;6202247;28;20157;-78
2021/08/15 00:54:12;;;;;;;15.98;13.50;;;20.50;99.90;;;;;;6201702;28;20053;-79
2021/08/15 00:57:13;;;;;;;16.35;12.82;;;20.60;99.90;;;;;;6185706;28;20137;-77
2021/08/15 01:00:13;;;;;;;15.48;12.80;;;20.50;99.90;;;;;;6219752;28;20056;-79
2021/08/15 01:03:14;;;;;;;17.92;13.50;;;20.30;99.90;;;;;;6219660;28;20034;-78
2021/08/15 01:06:15;;;;;;;21.48;14.45;;;20.40;99.90;;;;;;6201608;28;20415;-79
2021/08/15 01:09:15;;;;;;;15.77;12.38;;;20.30;99.90;;;;;;6185295;28;20034;-78
2021/08/15 01:12:16;;;;;;;17.50;12.63;;;20.30;99.90;;;;;;6210026;28;20034;-78
2021/08/15 01:15:17;;;;;;;16.25;12.90;;;20.30;99.90;;;;;;6219389;28;20475;-78
2021/08/15 01:18:21;;;;;;;16.63;12.82;;;20.20;99.90;;;;;;6201705;28;20044;-80
2021/08/15 01:21:22;;;;;;;15.30;12.77;;;20.20;99.90;;;;;;6185401;28;20450;-78
2021/08/15 01:24:23;;;;;;;16.52;12.93;;;20.30;99.90;;;;;;6201786;28;20022;-78
2021/08/15 01:27:24;;;;;;;16.92;12.90;;;20.10;99.90;;;;;;6185189;28;20030;-80
2021/08/15 01:30:26;;;;;;;17.00;12.25;;;20.10;99.90;;;;;;6201601;28;20964;-78
2021/08/15 01:33:39;;;;;;;18.30;12.85;;;20.10;99.90;;;;;;6163471;28;20067;-77
2021/08/15 01:36:39;;;;;;;18.08;13.35;;;20.10;99.90;;;;;;6170845;28;20035;-78
2021/08/15 01:39:41;;;;;;;19.65;13.40;;;20.20;99.90;;;;;;6169545;28;20479;-78
2021/08/15 01:42:41;;;;;;;15.60;13.53;;;20.00;99.90;;;;;;6169250;28;20042;-78
2021/08/15 01:45:42;;;;;;;20.65;12.52;;;20.00;99.90;;;;;;6170604;28;20262;-78
2021/08/15 01:48:43;;;;;;;20.05;13.82;;;20.10;99.90;;;;;;6169196;28;20035;-78
2021/08/15 01:51:43;;;;;;;16.50;14.43;;;19.80;99.90;;;;;;6185169;28;20042;-78
2021/08/15 01:54:44;;;;;;;17.02;13.65;;;19.80;99.90;;;;;;6199486;28;20096;-78
2021/08/15 01:57:45;;;;;;;17.55;14.50;;;19.70;99.90;;;;;;6179609;28;20604;-78
2021/08/15 02:00:45;;;;;;;18.92;13.07;;;20.50;99.90;;;;;;6173627;28;20043;-79
2021/08/15 02:03:46;;;;;;;16.60;13.30;;;19.60;99.90;;;;;;6180185;28;20620;-79
2021/08/15 02:06:47;;;;;;;18.73;12.25;;;19.60;99.90;;;;;;6195743;28;20063;-80
2021/08/15 02:09:47;;;;;;;17.33;12.82;;;19.60;99.90;;;;;;6186825;28;20042;-78
2021/08/15 02:12:48;;;;;;;17.98;13.85;;;19.60;99.90;;;;;;6175245;28;20039;-78
2021/08/15 02:15:49;;;;;;;17.73;13.30;;;19.50;99.90;;;;;;6189699;28;20034;-79
2021/08/15 02:18:50;;;;;;;17.30;13.00;;;;;;;;;;6190162;28;20031;-80
2021/08/15 02:21:50;;;;;;;16.45;13.30;;;19.60;99.90;;;;;;6194478;28;20094;-78
2021/08/15 02:24:51;;;;;;;15.55;13.02;;;19.60;99.90;;;;;;6186539;28;20054;-77
2021/08/15 02:27:51;;;;;;;18.55;14.48;;;19.70;99.90;;;;;;6213290;28;20026;-79
2021/08/15 02:30:52;;;;;;;17.73;13.07;;;19.60;99.90;;;;;;6158653;28;20026;-78
2021/08/15 02:33:53;;;;;;;17.70;13.10;;;19.70;99.90;;;;;;6217361;28;20517;-78
2021/08/15 02:36:53;;;;;;;18.65;13.15;;;19.60;99.90;;;;;;6229531;28;20033;-78
2021/08/15 02:39:58;;;;;;;16.50;13.63;;;19.60;99.90;;;;;;6229592;28;20056;-78
2021/08/15 02:42:59;;;;;;;15.38;13.13;;;20.30;99.90;;;;;;6230258;28;20036;-78
2021/08/15 02:46:00;;;;;;;19.35;14.30;;;19.50;99.90;;;;;;6190343;28;20037;-78
2021/08/15 02:49:00;;;;;;;15.32;13.25;;;19.60;99.90;;;;;;6204909;28;20033;-78
2021/08/15 02:52:01;;;;;;;17.30;14.23;;;19.40;99.90;;;;;;6226026;28;20035;-80
2021/08/15 02:55:02;;;;;;;21.30;13.27;;;19.60;99.90;;;;;;6221949;28;20528;-78
2021/08/15 02:58:03;;;;;;;16.90;13.45;;;19.70;99.90;;;;;;6188447;28;20034;-80
2021/08/15 03:01:04;;;;;;;15.45;12.85;;;19.40;99.90;;;;;;6204824;28;20037;-78
2021/08/15 03:04:04;;;;;;;18.08;13.27;;;19.60;99.90;;;;;;6227005;28;20735;-79
2021/08/15 03:07:05;;;;;;;18.55;12.98;;;19.40;99.90;;;;;;6228153;28;20029;-79
2021/08/15 03:10:06;;;;;;;18.15;13.00;;;19.70;99.90;;;;;;6246480;28;20374;-78
2021/08/15 03:13:07;;;;;;;18.63;14.20;;;;;;;;;;6228640;28;20046;-81
2021/08/15 03:16:08;;;;;;;20.10;14.02;;;;;;;;;;6228746;28;20030;-78
2021/08/15 03:19:09;;;;;;;22.92;15.07;;;;;;;;;;6228776;28;20029;-78
2021/08/15 03:22:10;;;;;;;18.27;15.02;;;;;;;;;;6228306;28;20021;-81
2021/08/15 03:25:11;;;;;;;18.50;13.77;;;19.60;99.90;;;;;;6229043;28;20048;-78
2021/08/15 03:28:12;;;;;;;17.25;13.05;;;;;;;;;;6228062;28;20454;-78
2021/08/15 03:31:12;;;;;;;15.70;13.35;;;19.80;99.90;;;;;;6246093;28;20027;-78
2021/08/15 03:34:15;;;;;;;18.08;13.43;;;19.60;99.90;;;;;;6245503;28;20498;-81
2021/08/15 03:37:16;;;;;;;16.40;12.45;;;19.60;99.90;;;;;;6228454;28;20061;-78
2021/08/15 03:40:17;;;;;;;17.45;11.85;;;19.50;99.90;;;;;;6228038;28;20029;-79
2021/08/15 03:43:17;;;;;;;17.73;13.18;;;19.50;99.90;;;;;;6228136;28;20112;-81
2021/08/15 03:46:18;;;;;;;15.75;12.52;;;19.50;99.90;;;;;;6227767;28;20033;-78
2021/08/15 03:49:19;;;;;;;18.42;12.65;;;19.60;99.90;;;;;;6227724;28;20033;-78
2021/08/15 03:52:19;;;;;;;16.27;12.43;;;19.40;99.90;;;;;;6207501;28;20088;-79
2021/08/15 03:55:20;;;;;;;17.55;13.52;;;19.30;99.90;;;;;;6213361;28;20407;-78
2021/08/15 03:58:20;;;;;;;17.13;14.52;;;19.10;99.90;;;;;;6245161;28;20034;-78
2021/08/15 04:01:21;;;;;;;16.85;13.63;;;19.30;99.90;;;;;;6227474;28;20125;-78
2021/08/15 04:04:22;;;;;;;16.33;13.27;;;19.10;99.90;;;;;;6227481;28;20423;-78
2021/08/15 04:07:22;;;;;;;19.73;12.65;;;19.10;99.90;;;;;;6245182;28;20031;-78
2021/08/15 04:10:23;;;;;;;19.35;12.98;;;;;;;;;;6208760;28;20061;-78
2021/08/15 04:13:24;;;;;;;16.45;11.80;;;19.20;99.90;;;;;;6220278;28;20045;-78
2021/08/15 04:16:24;;;;;;;15.48;12.82;;;19.20;99.90;;;;;;6219604;28;20034;-80
2021/08/15 04:19:25;;;;;;;18.20;13.77;;;19.30;99.90;;;;;;6202930;28;20034;-78
2021/08/15 04:22:25;;;;;;;15.00;12.32;;;19.10;99.90;;;;;;6186705;28;20037;-78
2021/08/15 04:25:26;;;;;;;18.17;13.88;;;19.30;99.90;;;;;;6202680;28;20041;-78
2021/08/15 04:28:27;;;;;;;19.52;12.95;;;19.30;99.90;;;;;;6202272;28;20060;-78
2021/08/15 04:31:27;;;;;;;19.60;14.32;;;19.20;99.90;;;;;;6226678;28;20032;-78
2021/08/15 04:34:28;;;;;;;18.08;13.60;;;19.10;99.90;;;;;;6226348;28;20057;-80
2021/08/15 04:37:29;;;;;;;17.02;12.43;;;19.20;99.90;;;;;;6227134;28;20041;-79
2021/08/15 04:40:30;;;;;;;17.52;12.32;;;19.20;99.90;;;;;;6226677;28;20052;-78
2021/08/15 04:43:31;;;;;;;16.20;11.90;;;19.30;99.90;;;;;;6244021;28;20034;-79
2021/08/15 04:46:32;;;;;;;16.00;12.07;;;19.40;99.90;;;;;;6226650;28;20029;-78
2021/08/15 04:49:33;;;;;;;18.20;11.65;;;19.50;99.90;;;;;;6226518;28;20033;-79
2021/08/15 04:52:33;;;;;;;20.45;12.82;;;19.60;99.90;;;;;;6244441;28;20044;-78
2021/08/15 04:55:35;;;;;;;18.88;13.57;;;19.50;99.90;;;;;;6226426;28;20033;-78
2021/08/15 04:58:37;;;;;;;17.10;13.88;;;19.60;99.90;;;;;;6226495;28;20026;-78
2021/08/15 05:01:37;;;;;;;18.90;15.65;;;19.80;99.90;;;;;;6226535;28;20468;-77
2021/08/15 05:04:38;;;;;;;22.63;16.77;;;19.60;99.90;;;;;;6209743;28;20116;-78
2021/08/15 05:07:38;;;;;;;21.50;18.38;;;19.80;99.90;;;;;;6202424;28;20038;-78
2021/08/15 05:10:42;;;;;;;26.55;20.63;;;20.10;99.90;;;;;;6201206;28;20030;-78
2021/08/15 05:13:44;;;;;;;23.20;17.40;;;20.30;99.90;;;;;;6201821;28;20480;-77
2021/08/15 05:16:45;;;;;;;16.30;13.50;;;20.70;99.90;;;;;;6204881;28;20029;-78
2021/08/15 05:19:46;;;;;;;13.00;11.48;;;20.90;99.90;;;;;;6243844;28;20502;-81
2021/08/15 05:22:46;;;;;;;15.65;12.20;;;21.30;99.90;;;;;;6209514;28;20045;-79
2021/08/15 05:25:47;;;;;;;16.75;12.55;;;21.40;99.90;;;;;;6225888;28;20029;-79
2021/08/15 05:28:47;;;;;;;16.10;11.90;;;21.20;99.90;;;;;;6225669;28;20061;-80
2021/08/15 05:31:48;;;;;;;16.38;13.05;;;21.20;99.90;;;;;;6225704;28;20029;-79
2021/08/15 05:34:49;;;;;;;16.35;12.63;;;;;;;;;;6225759;28;20034;-79
2021/08/15 05:37:50;;;;;;;15.23;12.48;;;21.10;99.90;;;;;;6225532;28;20038;-80
2021/08/15 05:40:50;;;;;;;17.58;12.57;;;21.10;99.90;;;;;;6209243;28;20029;-77
2021/08/15 05:43:51;;;;;;;13.88;11.95;;;21.20;99.90;;;;;;6209663;28;20109;-81
2021/08/15 05:46:51;;;;;;;17.02;12.32;;;21.60;99.90;;;;;;6202045;28;20053;-80
2021/08/15 05:49:52;;;;;;;16.23;11.73;;;21.80;99.90;;;;;;6216283;28;20491;-80
2021/08/15 05:52:53;;;;;;;18.60;12.65;;;22.40;99.90;;;;;;6207824;28;20076;-85
2021/08/15 05:55:53;;;;;;;16.88;12.10;;;22.30;99.90;;;;;;6210777;28;20029;-84
2021/08/15 05:58:54;;;;;;;15.82;12.13;;;22.80;99.90;;;;;;6205545;28;20056;-82
2021/08/15 06:01:55;;;;;;;12.60;11.02;;;23.50;99.90;;;;;;6189196;28;20028;-80
2021/08/15 06:04:56;;;;;;;13.07;11.32;;;;;;;;;;6188913;28;20022;-77
2021/08/15 06:07:57;;;;;;;18.83;12.37;;;;;;;;;;6205485;28;20030;-82
2021/08/15 06:10:58;;;;;;;17.00;11.17;;;;;;;;;;6222479;28;20383;-80
2021/08/15 06:13:59;;;;;;;16.43;11.13;;;25.30;99.90;;;;;;6205464;28;20048;-82
2021/08/15 06:16:59;;;;;;;16.93;11.80;;;25.80;99.90;;;;;;6205270;28;20824;-82
2021/08/15 06:20:00;;;;;;;17.80;10.13;;;26.20;99.90;;;;;;6204984;28;20057;-82
2021/08/15 06:23:01;;;;;;;12.43;10.50;;;25.80;99.90;;;;;;6204893;28;20032;-83
2021/08/15 06:26:01;;;;;;;15.17;9.87;;;25.80;99.90;;;;;;6205609;28;20372;-82
2021/08/15 06:29:02;;;;;;;12.77;9.50;;;25.40;99.90;;;;;;6204685;28;20022;-81
2021/08/15 06:32:03;;;;;;;15.20;10.67;;;25.50;99.90;;;;;;6188609;28;20034;-82
2021/08/15 06:35:04;;;;;;;13.67;9.90;;;25.50;99.90;;;;;;6204851;28;20088;-80
2021/08/15 06:38:05;;;;;;;16.77;10.70;;;25.50;99.90;;;;;;6190995;28;20037;-81
2021/08/15 06:41:06;;;;;;;12.73;9.90;;;26.00;99.90;;;;;;6225104;28;20034;-79
2021/08/15 06:44:07;;;;;;;13.93;9.90;;;26.00;99.90;;;;;;6209253;28;20071;-82
2021/08/15 06:47:08;;;;;;;12.73;10.57;;;25.80;99.90;;;;;;6209349;28;20034;-80
2021/08/15 06:50:09;;;;;;;14.30;10.13;;;25.70;99.90;;;;;;6192586;28;20030;-81
2021/08/15 06:53:09;;;;;;;17.52;10.95;;;25.50;99.90;;;;;;6226574;28;20038;-80
2021/08/15 06:56:11;;;;;;;13.23;9.13;;;25.40;99.90;;;;;;6226300;28;20460;-79
2021/08/15 06:59:13;;;;;;;16.15;10.73;;;25.60;99.90;;;;;;6209088;28;20595;-80
2021/08/15 07:02:14;;;;;;;;;;;25.50;99.90;;;;;;6226770;28;20471;-80
2021/08/15 07:05:15;;;;;;;15.75;10.85;;;25.50;99.90;;;;;;6226268;28;19905;-80
2021/08/15 07:08:16;;;;;;;15.60;10.48;;;25.40;99.90;;;;;;6208694;28;20440;-79
2021/08/15 07:11:17;;;;;;;16.23;10.48;;;25.30;99.90;;;;;;6208575;28;20446;-79
2021/08/15 07:14:17;;;;;;;11.70;9.27;;;25.50;99.90;;;;;;6225983;28;20041;-80
2021/08/15 07:17:18;;;;;;;14.10;10.70;;;26.20;99.90;;;;;;6226110;28;20026;-79
2021/08/15 07:20:18;;;;;;;16.57;10.13;;;27.10;99.90;;;;;;6226187;28;20422;-78
2021/08/15 07:23:19;;;;;;;15.67;10.63;;;27.80;99.90;;;;;;6225705;28;20064;-80
2021/08/15 07:26:19;;;;;;;12.90;10.73;;;27.80;99.80;;;;;;6225885;28;20038;-79
2021/08/15 07:29:20;;;;;;;14.37;10.37;;;27.50;99.90;;;;;;6225795;28;20113;-80
2021/08/15 07:32:20;;;;;;;12.13;9.70;;;27.40;99.90;;;;;;6207946;28;20057;-79
2021/08/15 07:35:21;;;;;;;16.40;10.47;;;27.90;99.90;;;;;;6225749;28;20034;-79
2021/08/15 07:38:23;;;;;;;13.33;9.13;;;28.50;99.50;;;;;;6225624;28;20030;-80
2021/08/15 07:41:23;;;;;;;13.05;9.50;;;29.50;97.80;;;;;;6225697;28;20261;-80
2021/08/15 07:44:24;;;;;;;11.00;9.23;;;30.50;95.80;;;;;;6225646;28;20431;-80
2021/08/15 07:47:24;;;;;;;14.70;10.27;;;31.00;95.20;;;;;;6225382;28;20026;-83
2021/08/15 07:50:26;;;;;;;19.60;10.17;;;31.30;93.50;;;;;;6225147;28;20030;-81
2021/08/15 07:53:27;;;;;;;13.30;9.70;;;31.70;92.50;;;;;;6225103;28;20050;-81
2021/08/15 07:56:28;;;;;;;13.85;9.75;;;32.10;92.00;;;;;;6207516;28;20091;-80
2021/08/15 07:59:28;;;;;;;13.13;10.43;;;32.10;90.90;;;;;;6224963;28;20519;-82
2021/08/15 08:02:29;;;;;;;14.87;9.80;;;32.80;90.90;;;;;;6225294;28;20137;-79
2021/08/15 08:05:29;;;;;;;17.33;9.23;;;33.00;90.10;;;;;;6207157;28;20041;-81
2021/08/15 08:08:30;;;;;;;12.80;9.70;;;33.20;88.30;;;;;;6224701;28;20028;-80
2021/08/15 08:11:31;;;;;;;16.85;10.68;;;32.90;87.00;;;;;;6207679;28;20403;-81
2021/08/15 08:14:31;;;;;;;19.13;10.77;;;32.80;88.60;;;;;;6224820;28;20073;-80
2021/08/15 08:17:41;;;;;;;18.27;11.47;;;32.90;88.70;;;;;;6206845;28;20026;-80
2021/08/15 08:20:41;;;;;;;16.83;11.38;;;33.00;87.60;;;;;;6224314;28;20037;-81
2021/08/15 08:23:42;;;;;;;14.57;10.63;;;33.20;88.20;;;;;;6224385;28;20476;-80
2021/08/15 08:26:43;;;;;;;15.15;11.32;;;33.40;86.60;;;;;;6224448;28;20034;-81
2021/08/15 08:29:43;;;;;;;13.30;11.23;;;33.80;87.40;;;;;;6224876;28;20109;-81
2021/08/15 08:32:44;;;;;;;15.20;10.67;;;34.00;84.90;;;;;;6223955;28;20329;-80
2021/08/15 08:35:44;;;;;;;15.13;11.80;;;33.40;84.30;;;;;;6206938;28;20264;-82
2021/08/15 08:38:45;;;;;;;14.23;11.10;;;33.30;86.40;;;;;;6206378;28;20735;-81
2021/08/15 08:41:45;;;;;;;13.13;10.50;;;33.60;85.30;;;;;;6224020;28;20044;-81
2021/08/15 08:44:46;;;;;;;12.50;9.73;;;34.10;97.10;;;;;;6190148;28;20061;-80
2021/08/15 08:47:52;;;;;;;15.23;10.65;;;34.10;77.70;;;;;;6206625;28;20045;-81
2021/08/15 08:50:53;;;;;;;14.75;10.80;;;34.30;81.70;;;;;;6224224;28;20056;-80
2021/08/15 08:53:54;;;;;;;11.90;10.57;;;34.70;92.40;;;;;;6223736;28;20085;-81
2021/08/15 08:56:54;;;;;;;15.45;10.65;;;34.50;81.50;;;;;;6223655;28;20049;-81
2021/08/15 08:59:55;;;;;;;15.88;10.40;;;34.80;80.30;;;;;;6223798;28;20515;-83
2021/08/15 09:02:57;;;;;;;13.50;10.63;;;;;;;;;;6223105;28;20053;-80
2021/08/15 09:05:58;;;;;;;16.73;10.07;;;35.20;83.60;;;;;;6223784;28;20045;-80
2021/08/15 09:09:12;;;;;;;15.30;11.07;;;35.30;84.90;;;;;;6223502;28;20040;-81
2021/08/15 09:12:12;;;;;;;13.55;11.07;;;35.50;84.50;;;;;;6223436;28;20038;-82
2021/08/15 09:15:14;;;;;;;13.32;11.55;;;35.20;86.20;;;;;;6223991;28;20068;-82
2021/08/15 09:18:27;;;;;;;14.98;11.30;;;35.00;78.90;;;;;;6205703;28;20084;-81
2021/08/15 09:21:29;;;;;;;14.20;10.50;;;34.90;79.00;;;;;;6224034;28;20030;-81
2021/08/15 09:24:30;;;;;;;12.52;11.05;;;35.30;86.20;;;;;;6223036;28;20113;-80
2021/08/15 09:27:38;;;;;;;11.70;10.45;;;34.50;85.80;;;;;;6205596;28;20041;-81
2021/08/15 09:30:39;;;;;;;15.95;11.57;;;33.50;87.40;;;;;;6205532;28;20029;-81
2021/08/15 09:33:43;;;;;;;12.85;11.52;;;33.00;82.70;;;;;;6222879;28;20057;-80
2021/08/15 09:36:43;;;;;;;16.13;12.40;;;32.90;83.60;;;;;;6223332;28;20046;-81
2021/08/15 09:39:44;;;;;;;14.27;11.98;;;33.20;86.40;;;;;;6223003;28;20033;-81
2021/08/15 09:42:44;;;;;;;14.85;11.25;;;33.60;86.00;;;;;;6223609;28;20045;-80
2021/08/15 09:45:46;;;;;;;13.75;11.02;;;33.90;85.50;;;;;;6223330;28;20037;-81
2021/08/15 09:48:47;;;;;;;14.40;11.60;;;34.20;83.20;;;;;;6223069;28;20049;-81
2021/08/15 09:51:47;;;;;;;13.77;12.30;;;33.90;83.00;;;;;;6205147;28;20439;-82
2021/08/15 09:54:55;;;;;;;15.10;13.13;;;33.40;82.70;;;;;;6205079;28;20076;-80
2021/08/15 09:57:56;;;;;;;14.80;11.68;;;33.00;83.50;;;;;;6205519;28;20026;-82
2021/08/15 10:00:56;;;;;;;13.20;11.77;;;33.10;85.50;;;;;;6205539;28;20480;-81
2021/08/15 10:03:57;;;;;;;14.85;12.38;;;33.60;86.10;;;;;;6222623;28;20084;-81
2021/08/15 10:06:58;;;;;;;16.45;12.70;;;33.90;83.00;;;;;;6205523;28;20466;-80
2021/08/15 10:09:58;;;;;;;13.75;12.02;;;33.80;82.10;;;;;;6205193;28;20485;-80
2021/08/15 10:12:59;;;;;;;18.23;12.70;;;33.40;83.20;;;;;;6205653;28;20419;-81
2021/08/15 10:16:06;;;;;;;14.18;12.68;;;33.20;84.00;;;;;;6225127;28;20065;-81
2021/08/15 10:19:09;;;;;;;20.05;12.68;;;33.10;85.20;;;;;;6209911;28;20456;-81
2021/08/15 10:22:10;;;;;;;16.00;13.57;;;32.50;86.10;;;;;;6209663;28;20022;-79
2021/08/15 10:25:10;;;;;;;14.82;12.57;;;32.40;88.60;;;;;;6209317;28;20103;-81
2021/08/15 10:28:31;;;;;;;15.82;11.48;;;32.70;87.10;;;;;;6209496;28;20062;-81
2021/08/15 10:32:11;;;;;;;13.13;11.73;;;32.40;85.60;;;;;;6195971;28;20040;-80
2021/08/15 10:35:12;;;;;;;17.52;12.98;;;32.30;86.80;;;;;;6208382;28;20064;-80
2021/08/15 10:38:15;;;;;;;15.98;12.18;;;32.20;87.10;;;;;;6209369;28;20026;-80
2021/08/15 10:41:44;;;;;;;13.77;11.98;;;32.40;88.20;;;;;;6209448;28;20531;-80
2021/08/15 10:45:01;;;;;;;13.05;11.35;;;33.10;88.10;;;;;;6226623;28;20033;-82
2021/08/15 10:48:05;;;;;;;14.55;12.52;;;33.70;86.30;;;;;;6209099;28;20025;-79
2021/08/15 10:51:05;;;;;;;14.50;12.20;;;33.90;85.30;;;;;;6226508;28;20029;-82
2021/08/15 10:54:06;;;;;;;15.70;11.80;;;33.70;83.80;;;;;;6208995;28;20120;-81
2021/08/15 10:57:08;;;;;;;14.88;12.70;;;33.50;84.10;;;;;;6227111;28;20479;-82
2021/08/15 11:00:31;;;;;;;14.05;12.52;;;33.20;85.80;;;;;;6208962;28;20113;-79
2021/08/15 11:03:36;;;;;;;19.65;13.52;;;33.00;85.70;;;;;;6226524;28;20033;-81
2021/08/15 11:06:39;;;;;;;18.70;12.30;;;33.10;86.60;;;;;;6208776;28;20080;-82
2021/08/15 11:10:12;;;;;;;20.77;12.68;;;33.20;86.70;;;;;;6226268;28;20026;-80
2021/08/15 11:13:16;;;;;;;15.90;11.40;;;33.40;85.10;;;;;;6226121;28;20105;-80
2021/08/15 11:16:26;;;;;;;17.08;11.60;;;33.60;84.20;;;;;;6208375;28;20061;-81
2021/08/15 11:19:27;;;;;;;13.48;11.32;;;33.90;84.50;;;;;;6225818;28;20060;-80
2021/08/15 11:22:27;;;;;;;;;;;33.90;88.30;;;;;;6226538;28;20022;-81
2021/08/15 11:25:28;;;;;;;15.27;11.27;;;34.40;90.60;;;;;;6207898;28;19905;-82
2021/08/15 11:28:29;;;;;;;15.63;11.77;;;34.40;83.70;;;;;;6208296;28;20384;-82
2021/08/15 11:31:35;;;;;;;12.38;10.95;;;34.40;89.40;;;;;;6208073;28;20451;-83
2021/08/15 11:34:36;;;;;;;13.43;11.25;;;34.40;88.50;;;;;;6207995;28;20058;-82
2021/08/15 11:37:39;;;;;;;13.02;11.60;;;34.50;88.40;;;;;;6207926;28;20103;-81
2021/08/15 11:40:57;;;;;;;13.68;11.07;;;34.70;82.30;;;;;;6191834;28;20080;-83
2021/08/15 11:43:58;;;;;;;16.33;11.98;;;35.10;89.10;;;;;;6208639;28;20456;-83
2021/08/15 11:47:19;;;;;;;15.23;11.70;;;35.10;88.10;;;;;;6225427;28;20065;-81
2021/08/15 11:50:20;;;;;;;15.23;11.77;;;34.70;81.00;;;;;;6225491;28;20040;-83
2021/08/15 11:53:30;;;;;;;14.90;11.25;;;34.20;86.80;;;;;;6207608;28;20037;-81
2021/08/15 11:56:31;;;;;;;15.60;10.67;;;33.90;82.50;;;;;;6224989;28;20413;-82
2021/08/15 11:59:31;;;;;;;16.05;11.07;;;33.50;88.70;;;;;;6225171;28;20018;-82
2021/08/15 12:02:32;;;;;;;13.88;11.77;;;33.40;90.80;;;;;;6224858;28;20118;-81
2021/08/15 12:05:44;;;;;;;14.90;12.40;;;33.60;85.30;;;;;;6207409;28;20041;-83
2021/08/15 12:08:44;;;;;;;15.82;12.32;;;33.60;85.40;;;;;;6207144;28;20037;-80
2021/08/15 12:11:53;;;;;;;13.95;11.35;;;33.70;84.80;;;;;;6207616;28;20033;-81
2021/08/15 12:15:04;;;;;;;16.23;12.60;;;33.70;85.50;;;;;;6224889;28;20038;-82
2021/08/15 12:18:05;;;;;;;14.23;12.35;;;33.70;84.60;;;;;;6208519;28;20109;-81
2021/08/15 12:21:34;;;;;;;16.00;12.43;;;33.60;84.70;;;;;;6207107;28;20036;-80
2021/08/15 12:24:34;;;;;;;12.75;11.32;;;33.70;85.50;;;;;;6224386;28;20061;-82
2021/08/15 12:27:35;;;;;;;13.90;11.20;;;33.70;90.40;;;;;;6206612;28;20029;-82
2021/08/15 12:30:35;;;;;;;17.95;11.20;;;33.40;84.20;;;;;;6224909;28;20436;-80
2021/08/15 12:33:36;;;;;;;16.52;11.75;;;33.20;82.60;;;;;;6223732;28;20066;-81
2021/08/15 12:36:45;;;;;;;15.35;11.07;;;33.40;85.80;;;;;;6224418;28;20038;-81
2021/08/15 12:40:04;;;;;;;13.43;11.35;;;33.60;86.10;;;;;;6206663;28;20021;-81
2021/08/15 12:43:10;;;;;;;16.67;10.65;;;33.90;83.20;;;;;;6224289;28;20040;-80
2021/08/15 12:46:22;;;;;;;15.25;10.73;;;34.00;84.50;;;;;;6223925;28;20033;-82
2021/08/15 12:49:31;;;;;;;15.20;10.82;;;34.10;84.30;;;;;;6224206;28;20048;-82
2021/08/15 12:52:48;;;;;;;18.70;11.82;;;33.80;83.70;;;;;;6223954;28;20172;-80
2021/08/15 12:55:53;;;;;;;14.57;10.73;;;33.60;84.70;;;;;;6223838;28;20030;-83
2021/08/15 12:58:53;;;;;;;13.13;10.50;;;33.30;83.40;;;;;;6207077;28;20025;-80
2021/08/15 13:01:54;;;;;;;19.08;11.25;;;32.80;84.00;;;;;;6223847;28;20034;-80
2021/08/15 13:04:58;;;;;;;17.30;11.35;;;33.00;87.40;;;;;;6205900;28;20033;-79
2021/08/15 13:07:58;;;;;;;20.95;11.90;;;32.90;87.10;;;;;;6189966;28;20025;-80
2021/08/15 13:10:59;;;;;;;16.48;11.45;;;33.00;88.20;;;;;;6205889;28;20030;-80
2021/08/15 13:14:00;;;;;;;16.20;11.05;;;33.00;86.70;;;;;;6223628;28;20041;-80
2021/08/15 13:17:01;;;;;;;17.98;11.48;;;33.00;87.60;;;;;;6205891;28;20030;-81
2021/08/15 13:20:03;;;;;;;15.65;11.70;;;33.00;88.60;;;;;;6205615;28;20034;-80
2021/08/15 13:23:04;;;;;;;20.70;11.60;;;33.10;86.40;;;;;;6206184;28;20152;-80
2021/08/15 13:26:04;;;;;;;19.45;12.55;;;33.20;86.70;;;;;;6223041;28;20029;-81
2021/08/15 13:29:05;;;;;;;18.55;11.57;;;33.10;86.60;;;;;;6223308;28;20033;-80
2021/08/15 13:32:06;;;;;;;16.58;10.82;;;33.30;86.80;;;;;;6222807;28;20034;-81
2021/08/15 13:35:07;;;;;;;16.77;10.85;;;33.50;86.80;;;;;;6205751;28;20124;-81
2021/08/15 13:38:08;;;;;;;19.88;11.88;;;33.60;85.60;;;;;;6223183;28;20038;-81
2021/08/15 13:41:08;;;;;;;16.05;10.70;;;33.30;84.50;;;;;;6223354;28;20153;-80
2021/08/15 13:44:09;;;;;;;14.32;11.60;;;32.80;84.60;;;;;;6222969;28;20476;-82
2021/08/15 13:47:10;;;;;;;12.93;10.35;;;32.50;86.70;;;;;;6205367;28;20535;-81
2021/08/15 13:50:11;;;;;;;20.90;11.15;;;32.10;87.60;;;;;;6225698;28;20034;-79
2021/08/15 13:53:12;;;;;;;17.73;10.85;;;32.00;89.30;;;;;;6210327;28;20088;-81
2021/08/15 13:56:13;;;;;;;21.55;11.55;;;31.90;89.20;;;;;;6210878;28;20029;-81
2021/08/15 13:59:13;;;;;;;18.17;11.57;;;31.70;87.70;;;;;;6194119;28;20530;-82
2021/08/15 14:02:14;;;;;;;16.20;11.02;;;31.60;88.90;;;;;;6228097;28;20026;-82
2021/08/15 14:05:15;;;;;;;16.40;10.70;;;31.50;89.40;;;;;;6227650;28;20068;-80
2021/08/15 14:08:16;;;;;;;18.27;10.52;;;31.40;88.50;;;;;;6210241;28;20108;-80
2021/08/15 14:11:16;;;;;;;17.00;10.57;;;31.20;89.90;;;;;;6227511;28;20395;-82
2021/08/15 14:14:17;;;;;;;17.70;11.30;;;31.00;89.70;;;;;;6227228;28;20045;-81
2021/08/15 14:17:18;;;;;;;19.80;9.95;;;30.80;90.40;;;;;;6227617;28;20022;-81
2021/08/15 14:20:18;;;;;;;21.17;10.80;;;30.80;89.40;;;;;;6227258;28;20034;-80
2021/08/15 14:23:19;;;;;;;16.70;10.37;;;30.80;89.60;;;;;;6227421;28;20501;-80
2021/08/15 14:26:20;;;;;;;17.00;10.23;;;30.70;90.50;;;;;;6227112;28;20596;-80
2021/08/15 14:29:21;;;;;;;16.50;10.27;;;30.70;90.70;;;;;;6227282;28;20072;-79
2021/08/15 14:32:21;;;;;;;13.83;9.63;;;30.60;90.80;;;;;;6226583;28;20499;-80
2021/08/15 14:35:22;;;;;;;17.10;10.43;;;30.40;90.60;;;;;;6227262;28;20381;-81
2021/08/15 14:38:22;;;;;;;18.93;10.30;;;30.40;90.70;;;;;;6209480;28;20299;-80
2021/08/15 14:41:23;;;;;;;19.97;10.80;;;30.20;90.70;;;;;;6226773;28;20030;-80
2021/08/15 14:44:23;;;;;;;18.97;10.30;;;30.20;91.50;;;;;;6209544;28;20261;-82
2021/08/15 14:47:24;;;;;;;16.50;9.80;;;30.20;91.60;;;;;;6209473;28;20081;-80
2021/08/15 14:50:25;;;;;;;17.15;9.90;;;30.10;91.30;;;;;;6226937;28;20056;-80
2021/08/15 14:53:25;;;;;;;13.40;9.85;;;30.10;91.70;;;;;;6226756;28;20088;-81
2021/08/15 14:56:26;;;;;;;16.07;9.57;;;30.10;92.00;;;;;;6209260;28;20026;-80
2021/08/15 14:59:26;;;;;;;14.20;10.33;;;30.10;91.90;;;;;;6209162;28;20611;-80
2021/08/15 15:02:27;;;;;;;25.13;10.20;;;30.00;92.00;;;;;;6208348;28;20101;-81
2021/08/15 15:05:28;;;;;;;22.47;11.30;;;29.90;92.30;;;;;;6226715;28;20431;-79
2021/08/15 15:08:28;;;;;;;17.38;9.77;;;29.80;92.40;;;;;;6208599;28;20526;-82
2021/08/15 15:11:29;;;;;;;22.00;9.80;;;29.60;92.20;;;;;;6226534;28;20117;-81
2021/08/15 15:14:30;;;;;;;14.68;9.77;;;29.50;93.00;;;;;;6208509;28;20097;-81
2021/08/15 15:17:31;;;;;;;14.83;9.57;;;29.50;93.00;;;;;;6208408;28;20057;-80
2021/08/15 15:20:32;;;;;;;15.07;10.23;;;29.40;93.00;;;;;;6208567;28;20037;-80
2021/08/15 15:23:33;;;;;;;17.55;10.07;;;29.50;99.90;;;;;;6208599;28;20121;-81
2021/08/15 15:26:33;;;;;;;18.53;9.43;;;29.40;93.00;;;;;;6208589;28;20146;-79
2021/08/15 15:29:34;;;;;;;18.73;8.77;;;29.30;93.40;;;;;;6208304;28;20022;-79
2021/08/15 15:32:35;;;;;;;21.33;10.63;;;29.40;93.40;;;;;;6225593;28;20384;-80